createdAt,value
2019-05-06T00:00:36.610Z,0
2019-05-06T00:01:36.600Z,0
2019-05-06T00:02:36.530Z,0
2019-05-06T00:03:36.870Z,0
2019-05-06T00:04:36.540Z,0
2019-05-06T00:05:50.295Z,0
2019-05-06T00:06:37.122Z,0
2019-05-06T00:07:50.082Z,0
2019-05-06T00:08:37.000Z,0
2019-05-06T00:09:37.318Z,0
2019-05-06T00:10:36.602Z,0
2019-05-06T00:11:37.100Z,0
2019-05-06T00:12:36.009Z,0
2019-05-06T00:13:36.807Z,0
2019-05-06T00:14:36.396Z,0
2019-05-06T00:16:37.247Z,0
2019-05-06T00:18:36.721Z,0
2019-05-06T00:19:36.614Z,0
2019-05-06T00:20:50.553Z,0
2019-05-06T00:21:50.578Z,0
2019-05-06T00:22:36.771Z,0
2019-05-06T00:23:40.313Z,0
2019-05-06T00:24:37.219Z,0
2019-05-06T00:25:37.307Z,0
2019-05-06T00:26:36.529Z,0
2019-05-06T00:28:36.484Z,0
2019-05-06T00:29:37.426Z,0
2019-05-06T00:30:36.955Z,0
2019-05-06T00:31:36.983Z,0
2019-05-06T00:32:37.255Z,0
2019-05-06T00:33:36.588Z,0
2019-05-06T00:34:36.587Z,0
2019-05-06T00:35:36.692Z,0
2019-05-06T00:36:36.922Z,0
2019-05-06T00:37:37.350Z,0
2019-05-06T00:38:38.658Z,0
2019-05-06T00:39:38.407Z,0
2019-05-06T00:40:36.521Z,0
2019-05-06T00:41:38.956Z,0
2019-05-06T00:42:37.165Z,0
2019-05-06T00:43:36.932Z,0
2019-05-06T00:44:37.093Z,0
2019-05-06T00:45:38.865Z,0
2019-05-06T00:46:50.997Z,0
2019-05-06T00:47:38.699Z,0
2019-05-06T00:49:36.945Z,0
2019-05-06T00:50:37.315Z,0
2019-05-06T00:51:38.509Z,0
2019-05-06T00:52:51.101Z,0
2019-05-06T00:53:51.121Z,0
2019-05-06T00:54:38.815Z,0
2019-05-06T00:55:38.632Z,0
2019-05-06T00:56:38.445Z,0
2019-05-06T00:57:36.532Z,0
2019-05-06T00:58:37.257Z,0
2019-05-06T00:59:37.021Z,0
2019-05-06T01:00:38.526Z,0
2019-05-06T01:01:39.192Z,0
2019-05-06T01:02:38.977Z,0
2019-05-06T01:03:37.246Z,0
2019-05-06T01:04:38.755Z,0
2019-05-06T01:05:51.327Z,0
2019-05-06T01:06:54.413Z,0
2019-05-06T01:07:39.197Z,0
2019-05-06T01:08:51.468Z,0
2019-05-06T01:09:39.062Z,0
2019-05-06T01:10:38.829Z,0
2019-05-06T01:11:37.102Z,0
2019-05-06T01:12:37.419Z,0
2019-05-06T01:13:37.536Z,0
2019-05-06T01:15:39.109Z,0
2019-05-06T01:16:39.278Z,0
2019-05-06T01:17:53.819Z,0
2019-05-06T01:18:38.759Z,0
2019-05-06T01:19:38.942Z,0
2019-05-06T01:20:51.572Z,0
2019-05-06T01:21:39.029Z,0
2019-05-06T01:22:38.658Z,0
2019-05-06T01:23:38.933Z,0
2019-05-06T01:24:51.637Z,0
2019-05-06T01:25:39.318Z,0
2019-05-06T01:26:38.551Z,0
2019-05-06T01:27:38.520Z,0
2019-05-06T01:28:54.511Z,0
2019-05-06T01:29:39.553Z,0
2019-05-06T01:30:53.579Z,0
2019-05-06T01:31:50.973Z,0
2019-05-06T01:32:39.266Z,0
2019-05-06T01:34:38.785Z,0
2019-05-06T01:36:39.209Z,0
2019-05-06T01:37:39.477Z,0
2019-05-06T01:38:38.783Z,0
2019-05-06T01:39:38.992Z,0
2019-05-06T01:40:51.909Z,0
2019-05-06T01:41:38.716Z,0
2019-05-06T01:42:39.235Z,0
2019-05-06T01:43:54.589Z,0
2019-05-06T01:44:38.742Z,0
2019-05-06T01:45:39.634Z,0
2019-05-06T01:46:38.829Z,0
2019-05-06T01:47:39.097Z,0
2019-05-06T01:48:38.421Z,0
2019-05-06T01:49:38.823Z,0
2019-05-06T01:50:39.259Z,0
2019-05-06T01:51:39.486Z,0
2019-05-06T01:52:39.031Z,0
2019-05-06T01:53:38.671Z,0
2019-05-06T01:54:39.208Z,0
2019-05-06T01:55:52.164Z,0
2019-05-06T01:56:38.524Z,0
2019-05-06T01:57:38.597Z,0
2019-05-06T01:58:38.350Z,0
2019-05-06T01:59:38.944Z,0
2019-05-06T02:00:43.697Z,0
2019-05-06T02:02:00.053Z,0
2019-05-06T02:03:39.451Z,0
2019-05-06T02:04:38.569Z,0
2019-05-06T02:05:38.514Z,0
2019-05-06T02:08:38.511Z,0
2019-05-06T02:09:39.086Z,0
2019-05-06T02:10:40.616Z,0
2019-05-06T02:11:38.545Z,0
2019-05-06T02:12:39.027Z,0
2019-05-06T02:13:39.657Z,0
2019-05-06T02:14:39.001Z,0
2019-05-06T02:15:39.428Z,0
2019-05-06T02:16:39.142Z,0
2019-05-06T02:17:39.345Z,0
2019-05-06T02:18:38.751Z,0
2019-05-06T02:19:39.580Z,0
2019-05-06T02:20:38.817Z,0
2019-05-06T02:21:38.491Z,0
2019-05-06T02:22:39.380Z,0
2019-05-06T02:23:38.670Z,0
2019-05-06T02:24:38.580Z,0
2019-05-06T02:25:39.053Z,0
2019-05-06T02:26:39.144Z,0
2019-05-06T02:27:54.130Z,0
2019-05-06T02:28:39.278Z,0
2019-05-06T02:29:38.954Z,0
2019-05-06T02:30:41.367Z,0
2019-05-06T02:31:40.283Z,0
2019-05-06T02:32:40.777Z,0
2019-05-06T02:33:55.745Z,0
2019-05-06T02:34:40.919Z,0
2019-05-06T02:35:39.689Z,0
2019-05-06T02:36:39.281Z,0
2019-05-06T02:37:39.965Z,0
2019-05-06T02:38:58.230Z,0
2019-05-06T02:39:43.743Z,0
2019-05-06T02:40:42.644Z,0
2019-05-06T02:41:42.963Z,0
2019-05-06T02:43:54.107Z,0
2019-05-06T02:44:43.742Z,0
2019-05-06T02:45:43.268Z,4
2019-05-06T02:48:56.805Z,0
2019-05-06T02:49:40.227Z,4
2019-05-06T02:50:42.642Z,4
2019-05-06T02:51:40.575Z,0
2019-05-06T02:52:40.179Z,4
2019-05-06T02:53:55.394Z,4
2019-05-06T02:54:42.668Z,4
2019-05-06T02:55:45.460Z,4
2019-05-06T02:57:43.652Z,12
2019-05-06T02:58:40.282Z,12
2019-05-06T02:59:55.129Z,12
2019-05-06T03:00:42.405Z,12
2019-05-06T03:01:43.201Z,12
2019-05-06T03:02:56.415Z,20
2019-05-06T03:03:43.529Z,20
2019-05-06T03:04:43.477Z,24
2019-05-06T03:05:55.851Z,28
2019-05-06T03:06:44.266Z,28
2019-05-06T03:07:45.896Z,32
2019-05-06T03:08:43.051Z,40
2019-05-06T03:09:44.311Z,44
2019-05-06T03:10:40.176Z,52
2019-05-06T03:11:40.407Z,56
2019-05-06T03:12:42.997Z,64
2019-05-06T03:13:43.659Z,72
2019-05-06T03:14:43.598Z,84
2019-05-06T03:15:56.389Z,92
2019-05-06T03:16:43.655Z,104
2019-05-06T03:17:40.061Z,116
2019-05-06T03:18:43.104Z,128
2019-05-06T03:19:45.488Z,144
2019-05-06T03:20:43.721Z,160
2019-05-06T03:21:44.749Z,176
2019-05-06T03:22:56.461Z,200
2019-05-06T03:23:56.877Z,220
2019-05-06T03:24:43.242Z,236
2019-05-06T03:25:40.412Z,256
2019-05-06T03:27:40.080Z,308
2019-05-06T03:28:43.621Z,332
2019-05-06T03:29:44.098Z,360
2019-05-06T03:31:08.557Z,404
2019-05-06T03:31:48.763Z,424
2019-05-06T03:34:17.653Z,496
2019-05-06T03:36:16.239Z,576
2019-05-06T03:36:58.258Z,612
2019-05-06T03:37:43.642Z,644
2019-05-06T03:39:43.333Z,736
2019-05-06T03:41:43.651Z,836
2019-05-06T03:42:42.608Z,888
2019-05-06T03:43:56.642Z,956
2019-05-06T03:44:40.326Z,996
2019-05-06T03:45:42.852Z,1060
2019-05-06T03:46:42.951Z,1124
2019-05-06T03:47:43.295Z,1184
2019-05-06T03:48:43.780Z,1248
2019-05-06T03:49:57.089Z,1336
2019-05-06T03:50:43.737Z,1392
2019-05-06T03:51:42.884Z,1460
2019-05-06T03:52:42.999Z,1540
2019-05-06T03:54:44.834Z,1696
2019-05-06T03:55:43.712Z,1772
2019-05-06T03:57:45.265Z,1944
2019-05-06T03:58:43.449Z,2024
2019-05-06T03:59:43.524Z,2108
2019-05-06T04:00:55.243Z,2220
2019-05-06T04:01:42.888Z,2288
2019-05-06T04:02:56.203Z,2404
2019-05-06T04:04:03.541Z,2504
2019-05-06T04:04:43.700Z,2568
2019-05-06T04:05:43.452Z,2660
2019-05-06T04:06:56.288Z,2780
2019-05-06T04:07:45.237Z,2860
2019-05-06T04:08:43.629Z,2956
2019-05-06T04:09:46.532Z,3228
2019-05-06T04:10:46.009Z,3372
2019-05-06T04:11:45.745Z,3500
2019-05-06T04:12:43.318Z,3796
2019-05-06T04:13:40.412Z,3700
2019-05-06T04:14:55.681Z,3624
2019-05-06T04:15:56.523Z,3712
2019-05-06T04:16:43.711Z,3788
2019-05-06T04:18:55.313Z,4032
2019-05-06T04:19:55.232Z,4148
2019-05-06T04:20:56.267Z,4276
2019-05-06T04:21:40.198Z,4344
2019-05-06T04:22:40.475Z,4340
2019-05-06T04:23:56.041Z,4600
2019-05-06T04:24:43.036Z,4672
2019-05-06T04:25:43.285Z,4820
2019-05-06T04:26:40.240Z,4844
2019-05-06T04:27:55.500Z,4984
2019-05-06T04:28:43.483Z,5116
2019-05-06T04:29:57.291Z,5488
2019-05-06T04:30:57.309Z,5880
2019-05-06T04:32:56.026Z,5764
2019-05-06T04:33:40.464Z,5844
2019-05-06T04:34:43.040Z,6120
2019-05-06T04:35:42.992Z,7152
2019-05-06T04:36:43.777Z,7172
2019-05-06T04:37:42.905Z,6592
2019-05-06T04:38:43.360Z,6760
2019-05-06T04:39:43.256Z,6852
2019-05-06T04:40:40.143Z,7044
2019-05-06T04:41:43.259Z,7116
2019-05-06T04:42:44.262Z,8476
2019-05-06T04:43:43.580Z,8480
2019-05-06T04:44:40.227Z,7560
2019-05-06T04:45:56.658Z,7932
2019-05-06T04:46:44.283Z,8084
2019-05-06T04:47:56.304Z,8244
2019-05-06T04:48:43.174Z,8396
2019-05-06T04:49:43.405Z,20384
2019-05-06T04:50:40.223Z,42368
2019-05-06T04:51:45.548Z,49728
2019-05-06T04:52:43.148Z,50112
2019-05-06T04:53:43.990Z,50944
2019-05-06T04:54:55.903Z,53504
2019-05-06T04:55:43.557Z,53568
2019-05-06T04:56:43.423Z,53888
2019-05-06T04:57:43.726Z,54688
2019-05-06T04:58:56.380Z,56640
2019-05-06T04:59:43.085Z,58496
2019-05-06T05:00:40.471Z,58688
2019-05-06T05:01:41.499Z,60256
2019-05-06T05:04:24.194Z,60992
2019-05-06T05:04:45.741Z,61952
2019-05-06T05:05:41.181Z,62048
2019-05-06T05:06:55.581Z,60416
2019-05-06T05:07:42.510Z,62432
2019-05-06T05:08:42.690Z,63136
2019-05-06T05:09:42.926Z,61632
2019-05-06T05:11:12.927Z,59776
2019-05-06T05:11:42.498Z,60320
2019-05-06T05:12:42.649Z,59008
2019-05-06T05:13:43.309Z,59968
2019-05-06T05:14:42.278Z,63264
2019-05-06T05:15:41.809Z,64256
2019-05-06T05:16:42.060Z,60992
2019-05-06T05:18:42.466Z,61312
2019-05-06T05:19:42.863Z,64128
2019-05-06T05:20:52.810Z,66272
2019-05-06T05:21:42.836Z,64352
2019-05-06T05:22:42.336Z,69696
2019-05-06T05:23:56.246Z,69408
2019-05-06T05:24:42.487Z,69888
2019-05-06T05:25:42.527Z,70400
2019-05-06T05:26:44.040Z,68992
2019-05-06T05:27:42.180Z,68480
2019-05-06T05:29:42.329Z,70304
2019-05-06T05:31:43.651Z,68896
2019-05-06T05:32:42.767Z,68416
2019-05-06T05:33:56.511Z,68928
2019-05-06T05:34:48.430Z,69856
2019-05-06T05:35:43.239Z,69856
2019-05-06T05:36:42.562Z,73248
2019-05-06T05:37:44.222Z,73408
2019-05-06T05:38:42.795Z,71392
2019-05-06T05:39:42.567Z,71872
2019-05-06T05:40:42.977Z,74016
2019-05-06T05:41:42.876Z,74496
2019-05-06T05:42:56.763Z,70816
2019-05-06T05:43:44.858Z,72224
2019-05-06T05:44:43.094Z,71136
2019-05-06T05:45:42.446Z,73504
2019-05-06T05:46:43.819Z,74816
2019-05-06T05:47:42.547Z,74944
2019-05-06T05:48:44.705Z,74368
2019-05-06T05:49:44.448Z,72160
2019-05-06T05:50:44.400Z,72448
2019-05-06T05:51:44.908Z,75136
2019-05-06T05:53:42.623Z,75872
2019-05-06T05:54:44.698Z,75904
2019-05-06T05:55:57.157Z,76896
2019-05-06T05:56:43.068Z,76064
2019-05-06T05:57:43.204Z,76320
2019-05-06T05:59:13.057Z,75424
2019-05-06T05:59:44.645Z,74688
2019-05-06T06:00:44.953Z,74496
2019-05-06T06:01:57.314Z,71648
2019-05-06T06:02:46.000Z,69824
2019-05-06T06:03:57.371Z,69408
2019-05-06T06:05:02.238Z,72640
2019-05-06T06:05:45.079Z,71168
2019-05-06T06:06:44.745Z,71136
2019-05-06T06:07:44.672Z,71936
2019-05-06T06:08:45.600Z,73632
2019-05-06T06:11:44.507Z,77568
2019-05-06T06:13:45.681Z,77024
2019-05-06T06:15:44.837Z,79104
2019-05-06T06:16:44.677Z,80832
2019-05-06T06:17:45.010Z,78080
2019-05-06T06:18:45.480Z,78464
2019-05-06T06:19:44.893Z,82944
2019-05-06T06:20:44.843Z,83744
2019-05-06T06:21:45.134Z,82272
2019-05-06T06:22:44.927Z,84608
2019-05-06T06:23:44.396Z,84704
2019-05-06T06:24:45.220Z,83840
2019-05-06T06:25:44.790Z,85952
2019-05-06T06:26:58.074Z,86752
2019-05-06T06:27:44.425Z,84768
2019-05-06T06:28:44.968Z,83776
2019-05-06T06:29:45.379Z,80896
2019-05-06T06:30:58.201Z,82432
2019-05-06T06:31:45.214Z,85728
2019-05-06T06:32:44.339Z,82816
2019-05-06T06:33:45.352Z,77472
2019-05-06T06:34:45.190Z,67168
2019-05-06T06:35:45.061Z,70816
2019-05-06T06:36:44.349Z,71744
2019-05-06T06:37:45.105Z,63040
2019-05-06T06:38:45.326Z,75360
2019-05-06T06:39:44.699Z,78304
2019-05-06T06:40:44.990Z,79872
2019-05-06T06:41:44.826Z,88064
2019-05-06T06:42:45.191Z,87936
2019-05-06T06:43:44.502Z,88384
2019-05-06T06:44:44.819Z,85664
2019-05-06T06:45:58.690Z,87040
2019-05-06T06:46:45.345Z,89920
2019-05-06T06:47:44.965Z,88576
2019-05-06T06:48:45.466Z,84800
2019-05-06T06:50:45.101Z,87136
2019-05-06T06:51:44.947Z,90400
2019-05-06T06:52:44.647Z,89824
2019-05-06T06:54:46.253Z,89600
2019-05-06T06:55:59.000Z,51552
2019-05-06T06:56:44.786Z,16724
2019-05-06T06:57:58.820Z,87712
2019-05-06T06:58:46.502Z,85056
2019-05-06T06:59:45.077Z,84640
2019-05-06T07:00:59.173Z,80448
2019-05-06T07:01:46.309Z,63264
2019-05-06T07:02:45.660Z,77408
2019-05-06T07:03:45.570Z,21920
2019-05-06T07:04:45.553Z,15668
2019-05-06T07:05:47.030Z,17696
2019-05-06T07:06:44.764Z,53536
2019-05-06T07:07:55.519Z,12880
2019-05-06T07:08:47.368Z,14164
2019-05-06T07:09:46.699Z,86304
2019-05-06T07:10:45.510Z,14324
2019-05-06T07:11:45.344Z,13756
2019-05-06T07:12:47.386Z,57312
2019-05-06T07:15:47.402Z,12504
2019-05-06T07:16:47.731Z,12832
2019-05-06T07:18:01.757Z,80640
2019-05-06T07:18:47.436Z,14352
2019-05-06T07:20:47.466Z,10908
2019-05-06T07:21:48.416Z,10844
2019-05-06T07:22:47.192Z,12960
2019-05-06T07:23:46.890Z,78720
2019-05-06T07:25:03.476Z,23488
2019-05-06T07:25:47.639Z,81600
2019-05-06T07:26:47.274Z,31904
2019-05-06T07:27:46.871Z,37376
2019-05-06T07:29:03.830Z,34656
2019-05-06T07:29:54.766Z,83552
2019-05-06T07:30:46.807Z,72256
2019-05-06T07:31:47.510Z,18208
2019-05-06T07:32:47.276Z,12280
2019-05-06T07:34:00.122Z,46016
2019-05-06T07:34:46.848Z,70304
2019-05-06T07:35:48.787Z,72576
2019-05-06T07:37:47.188Z,72416
2019-05-06T07:38:47.268Z,69184
2019-05-06T07:39:47.958Z,74144
2019-05-06T07:40:46.779Z,65024
2019-05-06T07:41:53.274Z,70880
2019-05-06T07:42:47.943Z,68480
2019-05-06T07:44:02.123Z,15308
2019-05-06T07:44:47.154Z,14980
2019-05-06T07:45:47.168Z,53472
2019-05-06T07:47:47.508Z,27904
2019-05-06T07:48:47.702Z,71168
2019-05-06T07:50:02.367Z,19072
2019-05-06T07:50:49.213Z,76000
2019-05-06T07:51:46.800Z,70880
2019-05-06T07:52:46.952Z,65728
2019-05-06T07:53:47.529Z,63968
2019-05-06T07:54:47.277Z,58048
2019-05-06T07:55:47.283Z,65280
2019-05-06T07:56:47.670Z,34368
2019-05-06T07:57:49.577Z,15400
2019-05-06T07:58:48.301Z,15112
2019-05-06T08:00:03.289Z,13420
2019-05-06T08:01:02.597Z,12964
2019-05-06T08:01:48.863Z,15532
2019-05-06T08:03:02.630Z,64416
2019-05-06T08:03:47.581Z,65920
2019-05-06T08:04:46.971Z,69440
2019-05-06T08:06:05.110Z,21472
2019-05-06T08:06:47.515Z,25440
2019-05-06T08:07:47.119Z,12208
2019-05-06T08:08:48.166Z,64768
2019-05-06T08:09:47.132Z,67392
2019-05-06T08:10:47.101Z,66272
2019-05-06T08:11:47.097Z,15564
2019-05-06T08:12:47.667Z,64000
2019-05-06T08:13:48.304Z,68672
2019-05-06T08:14:47.949Z,65504
2019-05-06T08:15:49.169Z,63840
2019-05-06T08:16:53.135Z,67968
2019-05-06T08:17:49.422Z,69024
2019-05-06T08:18:47.445Z,18144
2019-05-06T08:19:47.108Z,29152
2019-05-06T08:21:02.413Z,16652
2019-05-06T08:21:47.596Z,40704
2019-05-06T08:22:47.095Z,14084
2019-05-06T08:23:47.646Z,12692
2019-05-06T08:24:47.089Z,12376
2019-05-06T08:25:49.603Z,13528
2019-05-06T08:26:47.631Z,13480
2019-05-06T08:27:49.464Z,16100
2019-05-06T08:28:52.565Z,40128
2019-05-06T08:29:49.539Z,14884
2019-05-06T08:30:47.990Z,53152
2019-05-06T08:31:47.911Z,58688
2019-05-06T08:32:49.621Z,15600
2019-05-06T08:33:48.069Z,58304
2019-05-06T08:34:48.735Z,15020
2019-05-06T08:35:49.623Z,13408
2019-05-06T08:36:49.735Z,12476
2019-05-06T08:37:49.744Z,11380
2019-05-06T08:38:49.288Z,11732
2019-05-06T08:40:07.342Z,30496
2019-05-06T08:40:47.995Z,50048
2019-05-06T08:41:49.461Z,46496
2019-05-06T08:43:04.730Z,35104
2019-05-06T08:43:49.300Z,31904
2019-05-06T08:44:49.796Z,31008
2019-05-06T08:46:50.273Z,13556
2019-05-06T08:47:52.143Z,13004
2019-05-06T08:48:47.700Z,12844
2019-05-06T08:49:52.723Z,13828
2019-05-06T08:51:07.252Z,23040
2019-05-06T08:52:04.509Z,28832
2019-05-06T08:53:05.002Z,27776
2019-05-06T08:54:04.287Z,18624
2019-05-06T08:54:48.189Z,14048
2019-05-06T08:55:49.301Z,27232
2019-05-06T08:56:52.141Z,27200
2019-05-06T08:58:52.474Z,27008
2019-05-06T08:59:49.623Z,27392
2019-05-06T09:01:04.640Z,24288
2019-05-06T09:01:49.621Z,13340
2019-05-06T09:02:52.988Z,11136
2019-05-06T09:04:05.024Z,10308
2019-05-06T09:05:49.509Z,9812
2019-05-06T09:07:05.447Z,10732
2019-05-06T09:07:52.237Z,11644
2019-05-06T09:09:04.883Z,10748
2019-05-06T09:09:49.327Z,10456
2019-05-06T09:10:52.045Z,9892
2019-05-06T09:11:50.397Z,9556
2019-05-06T09:12:49.700Z,9416
2019-05-06T09:13:52.107Z,9120
2019-05-06T09:14:50.311Z,8732
2019-05-06T09:15:52.009Z,8356
2019-05-06T09:17:05.843Z,7912
2019-05-06T09:17:49.252Z,7688
2019-05-06T09:18:49.872Z,7688
2019-05-06T09:20:05.154Z,8596
2019-05-06T09:20:50.421Z,9008
2019-05-06T09:21:55.640Z,9644
2019-05-06T09:23:49.616Z,10968
2019-05-06T09:25:04.917Z,10996
2019-05-06T09:25:49.677Z,10612
2019-05-06T09:26:52.184Z,10380
2019-05-06T09:27:49.383Z,10156
2019-05-06T09:28:49.682Z,9612
2019-05-06T09:29:52.117Z,9280
2019-05-06T09:30:52.411Z,9016
2019-05-06T09:31:52.043Z,9028
2019-05-06T09:32:51.965Z,9104
2019-05-06T09:34:05.215Z,9260
2019-05-06T09:34:52.570Z,9460
2019-05-06T09:35:49.480Z,20064
2019-05-06T09:37:02.864Z,11576
2019-05-06T09:37:50.222Z,21696
2019-05-06T09:38:49.676Z,10568
2019-05-06T09:39:50.382Z,9044
2019-05-06T09:41:07.519Z,9016
2019-05-06T09:42:02.193Z,9096
2019-05-06T09:42:51.926Z,9648
2019-05-06T09:43:52.639Z,9576
2019-05-06T09:44:53.992Z,8800
2019-05-06T09:45:49.820Z,8088
2019-05-06T09:46:49.966Z,7664
2019-05-06T09:47:49.814Z,7584
2019-05-06T09:48:49.689Z,7748
2019-05-06T09:50:56.070Z,15192
2019-05-06T09:51:49.750Z,10668
2019-05-06T09:52:49.936Z,11772
2019-05-06T09:53:53.022Z,9460
2019-05-06T09:54:50.064Z,11492
2019-05-06T09:56:05.860Z,12516
2019-05-06T09:56:49.964Z,10040
2019-05-06T09:57:52.079Z,10024
2019-05-06T09:58:52.739Z,14832
2019-05-06T09:59:49.407Z,11508
2019-05-06T10:01:05.149Z,11700
2019-05-06T10:01:52.760Z,15788
2019-05-06T10:02:52.691Z,13688
2019-05-06T10:03:50.015Z,13144
2019-05-06T10:04:51.718Z,22016
2019-05-06T10:05:49.813Z,15728
2019-05-06T10:08:05.478Z,13124
2019-05-06T10:08:49.552Z,12884
2019-05-06T10:09:52.497Z,12012
2019-05-06T10:11:05.684Z,10856
2019-05-06T10:11:49.631Z,10508
2019-05-06T10:12:49.643Z,10008
2019-05-06T10:13:52.277Z,9428
2019-05-06T10:14:52.521Z,8864
2019-05-06T10:15:52.015Z,8580
2019-05-06T10:16:52.338Z,8692
2019-05-06T10:17:52.023Z,8900
2019-05-06T10:18:52.253Z,9500
2019-05-06T10:20:04.922Z,10120
2019-05-06T10:20:50.327Z,10436
2019-05-06T10:21:50.038Z,11124
2019-05-06T10:23:05.246Z,12860
2019-05-06T10:23:49.926Z,14508
2019-05-06T10:24:52.245Z,20864
2019-05-06T10:25:52.289Z,20608
2019-05-06T10:26:52.311Z,20544
2019-05-06T10:28:07.501Z,20512
2019-05-06T10:28:52.121Z,20704
2019-05-06T10:31:04.839Z,12120
2019-05-06T10:31:52.342Z,12008
2019-05-06T10:32:50.125Z,11500
2019-05-06T10:33:50.146Z,11036
2019-05-06T10:34:52.566Z,10884
2019-05-06T10:36:04.854Z,10804
2019-05-06T10:36:50.221Z,10800
2019-05-06T10:37:52.462Z,10628
2019-05-06T10:38:50.362Z,10292
2019-05-06T10:39:52.159Z,9952
2019-05-06T10:41:12.974Z,9780
2019-05-06T10:42:52.290Z,9884
2019-05-06T10:44:05.543Z,10136
2019-05-06T10:44:52.981Z,10092
2019-05-06T10:45:52.011Z,10116
2019-05-06T10:46:52.618Z,10564
2019-05-06T10:47:50.488Z,11300
2019-05-06T10:49:05.199Z,20064
2019-05-06T10:49:52.795Z,18400
2019-05-06T10:50:52.045Z,20768
2019-05-06T10:51:52.844Z,20928
2019-05-06T10:52:51.793Z,21024
2019-05-06T10:54:05.279Z,20832
2019-05-06T10:54:50.641Z,20672
2019-05-06T10:55:53.326Z,16408
2019-05-06T10:57:04.562Z,18304
2019-05-06T10:57:52.937Z,13536
2019-05-06T10:58:52.727Z,12996
2019-05-06T11:00:22.605Z,10060
2019-05-06T11:00:52.821Z,9744
2019-05-06T11:01:50.806Z,9480
2019-05-06T11:02:52.363Z,9776
2019-05-06T11:03:52.475Z,9640
2019-05-06T11:04:52.934Z,13352
2019-05-06T11:06:05.575Z,10188
2019-05-06T11:06:52.431Z,10460
2019-05-06T11:07:52.134Z,11428
2019-05-06T11:08:52.504Z,14660
2019-05-06T11:09:53.089Z,9728
2019-05-06T11:10:53.381Z,9036
2019-05-06T11:11:51.050Z,8536
2019-05-06T11:12:52.285Z,8396
2019-05-06T11:13:52.187Z,8248
2019-05-06T11:14:53.136Z,8844
2019-05-06T11:16:08.108Z,8588
2019-05-06T11:16:51.166Z,8932
2019-05-06T11:17:51.189Z,8784
2019-05-06T11:18:53.318Z,8752
2019-05-06T11:19:53.136Z,8764
2019-05-06T11:20:52.961Z,8756
2019-05-06T11:21:53.057Z,8988
2019-05-06T11:22:52.810Z,9084
2019-05-06T11:23:52.612Z,9380
2019-05-06T11:25:06.021Z,10108
2019-05-06T11:25:52.528Z,10308
2019-05-06T11:26:53.183Z,13048
2019-05-06T11:27:54.989Z,12576
2019-05-06T11:28:52.007Z,12012
2019-05-06T11:29:53.033Z,11260
2019-05-06T11:31:09.248Z,11104
2019-05-06T11:31:54.189Z,10980
2019-05-06T11:32:54.500Z,11248
2019-05-06T11:33:52.542Z,11556
2019-05-06T11:34:52.578Z,12068
2019-05-06T11:35:52.722Z,12400
2019-05-06T11:37:59.164Z,11964
2019-05-06T11:38:54.672Z,11604
2019-05-06T11:39:52.820Z,11520
2019-05-06T11:40:52.831Z,13904
2019-05-06T11:42:37.647Z,11640
2019-05-06T11:43:52.228Z,11096
2019-05-06T11:44:53.032Z,10444
2019-05-06T11:45:52.203Z,9840
2019-05-06T11:46:52.284Z,8956
2019-05-06T11:47:55.715Z,8112
2019-05-06T11:48:52.317Z,7676
2019-05-06T11:50:06.607Z,8064
2019-05-06T11:50:51.968Z,8780
2019-05-06T11:51:51.985Z,9776
2019-05-06T11:53:06.676Z,8972
2019-05-06T11:53:56.412Z,8716
2019-05-06T11:54:52.815Z,8440
2019-05-06T11:57:05.260Z,9932
2019-05-06T11:57:52.897Z,7820
2019-05-06T11:58:53.110Z,9700
2019-05-06T11:59:54.947Z,8524
2019-05-06T12:00:52.669Z,9644
2019-05-06T12:01:53.336Z,10068
2019-05-06T12:03:07.207Z,8444
2019-05-06T12:03:54.555Z,8588
2019-05-06T12:04:52.871Z,9212
2019-05-06T12:05:52.650Z,10796
2019-05-06T12:07:11.000Z,11048
2019-05-06T12:08:17.741Z,11932
2019-05-06T12:09:53.794Z,11520
2019-05-06T12:10:54.439Z,11856
2019-05-06T12:11:55.182Z,11896
2019-05-06T12:12:53.302Z,11796
2019-05-06T12:13:53.167Z,11568
2019-05-06T12:14:55.030Z,11056
2019-05-06T12:15:54.837Z,10536
2019-05-06T12:16:55.040Z,10124
2019-05-06T12:17:53.425Z,9840
2019-05-06T12:19:55.119Z,9636
2019-05-06T12:21:07.835Z,9732
2019-05-06T12:21:52.700Z,9904
2019-05-06T12:22:52.914Z,10084
2019-05-06T12:24:07.397Z,10316
2019-05-06T12:24:54.980Z,10432
2019-05-06T12:25:55.113Z,10560
2019-05-06T12:26:54.645Z,10712
2019-05-06T12:28:55.492Z,10924
2019-05-06T12:29:55.236Z,10888
2019-05-06T12:30:54.857Z,10864
2019-05-06T12:32:07.581Z,11100
2019-05-06T12:32:55.078Z,11152
2019-05-06T12:33:55.653Z,10992
2019-05-06T12:35:08.106Z,11096
2019-05-06T12:35:54.469Z,11260
2019-05-06T12:36:55.191Z,11544
2019-05-06T12:37:55.415Z,11748
2019-05-06T12:38:54.848Z,11956
2019-05-06T12:39:55.736Z,11940
2019-05-06T12:40:55.368Z,11792
2019-05-06T12:41:55.787Z,11736
2019-05-06T12:42:55.815Z,11596
2019-05-06T12:44:07.859Z,11348
2019-05-06T12:45:07.898Z,11076
2019-05-06T12:45:55.464Z,10916
2019-05-06T12:46:55.449Z,10940
2019-05-06T12:47:55.705Z,10632
2019-05-06T12:48:54.585Z,10744
2019-05-06T12:49:55.838Z,10880
2019-05-06T12:51:08.026Z,10828
2019-05-06T12:51:53.753Z,10800
2019-05-06T12:52:57.649Z,10600
2019-05-06T12:53:55.326Z,10512
2019-05-06T12:55:18.109Z,10424
2019-05-06T12:57:55.546Z,10116
2019-05-06T12:59:08.210Z,10244
2019-05-06T12:59:55.544Z,10188
2019-05-06T13:00:56.575Z,10092
2019-05-06T13:01:56.535Z,10100
2019-05-06T13:02:55.572Z,10108
2019-05-06T13:03:55.064Z,10068
2019-05-06T13:05:08.355Z,9684
2019-05-06T13:06:15.377Z,9268
2019-05-06T13:06:54.646Z,9108
2019-05-06T13:08:08.437Z,9120
2019-05-06T13:09:12.412Z,9340
2019-05-06T13:10:55.050Z,9764
2019-05-06T13:11:54.866Z,9836
2019-05-06T13:12:56.604Z,9900
2019-05-06T13:14:09.032Z,10064
2019-05-06T13:15:08.583Z,10372
2019-05-06T13:15:55.324Z,10600
2019-05-06T13:16:55.704Z,10696
2019-05-06T13:17:55.615Z,10792
2019-05-06T13:18:59.092Z,10092
2019-05-06T13:20:58.321Z,9144
2019-05-06T13:22:55.970Z,8056
2019-05-06T13:23:54.141Z,8024
2019-05-06T13:24:54.495Z,7460
2019-05-06T13:25:55.255Z,6708
2019-05-06T13:26:55.262Z,8780
2019-05-06T13:27:55.293Z,7360
2019-05-06T13:28:55.659Z,6104
2019-05-06T13:29:54.271Z,7532
2019-05-06T13:30:55.618Z,7700
2019-05-06T13:31:55.503Z,7624
2019-05-06T13:32:54.871Z,6932
2019-05-06T13:33:57.263Z,6604
2019-05-06T13:34:55.070Z,5392
2019-05-06T13:35:55.060Z,7472
2019-05-06T13:36:55.577Z,7320
2019-05-06T13:38:09.117Z,7212
2019-05-06T13:39:14.839Z,7232
2019-05-06T13:39:55.400Z,7200
2019-05-06T13:41:03.228Z,7196
2019-05-06T13:43:56.539Z,7220
2019-05-06T13:44:54.613Z,7456
2019-05-06T13:45:57.341Z,4952
2019-05-06T13:46:55.816Z,7696
2019-05-06T13:47:57.140Z,4880
2019-05-06T13:49:09.371Z,5376
2019-05-06T13:49:57.019Z,5868
2019-05-06T13:50:55.102Z,6112
2019-05-06T13:52:00.465Z,6352
2019-05-06T13:53:16.765Z,6464
2019-05-06T13:54:12.742Z,6748
2019-05-06T13:54:57.759Z,7140
2019-05-06T13:55:57.367Z,7644
2019-05-06T13:56:56.994Z,8892
2019-05-06T13:58:57.262Z,7468
2019-05-06T13:59:57.685Z,7112
2019-05-06T14:01:11.470Z,7504
2019-05-06T14:01:57.492Z,7680
2019-05-06T14:03:12.522Z,7744
2019-05-06T14:03:57.123Z,7992
2019-05-06T14:04:57.562Z,8596
2019-05-06T14:06:12.072Z,8116
2019-05-06T14:06:57.638Z,8008
2019-05-06T14:07:57.731Z,8028
2019-05-06T14:08:55.430Z,7928
2019-05-06T14:10:09.610Z,7872
2019-05-06T14:11:07.109Z,8016
2019-05-06T14:12:11.976Z,8140
2019-05-06T14:12:57.908Z,8108
2019-05-06T14:13:57.785Z,8132
2019-05-06T14:14:57.510Z,7936
2019-05-06T14:15:57.562Z,7824
2019-05-06T14:17:10.014Z,7852
2019-05-06T14:17:57.824Z,7984
2019-05-06T14:18:58.194Z,8172
2019-05-06T14:20:09.829Z,8352
2019-05-06T14:20:56.939Z,8388
2019-05-06T14:21:57.134Z,8232
2019-05-06T14:22:57.523Z,7624
2019-05-06T14:24:55.531Z,6684
2019-05-06T14:26:12.317Z,7304